createdAt,value
2022-10-30T00:00:08.770Z,10.91
2022-10-30T00:00:58.736Z,10.90
2022-10-30T00:01:48.792Z,10.86
2022-10-30T00:02:38.762Z,10.86
2022-10-30T00:03:28.716Z,10.87
2022-10-30T00:04:18.706Z,10.88
2022-10-30T00:05:08.725Z,10.90
2022-10-30T00:05:58.696Z,10.88
2022-10-30T00:06:48.680Z,10.90
2022-10-30T00:07:38.666Z,10.88
2022-10-30T00:08:28.667Z,10.88
2022-10-30T00:09:18.649Z,10.87
2022-10-30T00:10:08.645Z,10.88
2022-10-30T00:10:58.674Z,10.87
2022-10-30T00:11:48.629Z,10.88
2022-10-30T00:12:38.622Z,10.88
2022-10-30T00:13:28.606Z,10.88
2022-10-30T00:14:18.591Z,10.86
2022-10-30T00:15:08.587Z,10.83
2022-10-30T00:15:58.579Z,10.83
2022-10-30T00:16:48.587Z,10.83
2022-10-30T00:17:38.561Z,10.83
2022-10-30T00:18:28.549Z,10.84
2022-10-30T00:19:18.536Z,10.86
2022-10-30T00:20:08.532Z,10.84
2022-10-30T00:20:58.819Z,10.83
2022-10-30T00:21:48.516Z,10.84
2022-10-30T00:22:38.496Z,10.84
2022-10-30T00:23:28.496Z,10.84
2022-10-30T00:24:18.487Z,10.83
2022-10-30T00:25:08.474Z,10.81
2022-10-30T00:25:58.464Z,10.80
2022-10-30T00:26:48.484Z,10.78
2022-10-30T00:27:38.445Z,10.78
2022-10-30T00:28:28.439Z,10.81
2022-10-30T00:29:18.434Z,10.80
2022-10-30T00:30:08.436Z,10.80
2022-10-30T00:30:58.416Z,10.78
2022-10-30T00:31:48.408Z,10.78
2022-10-30T00:32:38.415Z,10.80
2022-10-30T00:33:28.375Z,10.80
2022-10-30T00:34:18.374Z,10.80
2022-10-30T00:35:08.367Z,10.80
2022-10-30T00:35:58.346Z,10.81
2022-10-30T00:36:48.355Z,10.83
2022-10-30T00:37:38.338Z,10.83
2022-10-30T00:38:28.378Z,10.81
2022-10-30T00:39:18.314Z,10.80
2022-10-30T00:40:08.304Z,10.80
2022-10-30T00:40:58.295Z,10.80
2022-10-30T00:41:48.294Z,10.76
2022-10-30T00:42:38.278Z,10.75
2022-10-30T00:43:28.263Z,10.73
2022-10-30T00:44:18.273Z,10.72
2022-10-30T00:45:08.254Z,10.72
2022-10-30T00:45:58.235Z,10.69
2022-10-30T00:46:48.233Z,10.70
2022-10-30T00:47:38.223Z,10.70
2022-10-30T00:48:28.226Z,10.69
2022-10-30T00:49:18.195Z,10.69
2022-10-30T00:50:08.220Z,10.69
2022-10-30T00:50:58.178Z,10.66
2022-10-30T00:51:48.180Z,10.65
2022-10-30T00:52:38.161Z,10.63
2022-10-30T00:53:28.152Z,10.63
2022-10-30T00:54:18.133Z,10.65
2022-10-30T00:55:08.133Z,10.63
2022-10-30T00:55:58.330Z,10.65
2022-10-30T00:56:48.126Z,10.63
2022-10-30T00:57:38.102Z,10.65
2022-10-30T00:58:28.093Z,10.65
2022-10-30T00:59:18.082Z,10.62
2022-10-30T01:00:08.073Z,10.58
2022-10-30T01:00:58.140Z,10.55
2022-10-30T01:01:48.212Z,10.52
2022-10-30T01:02:38.123Z,10.54
2022-10-30T01:03:28.042Z,10.52
2022-10-30T01:04:18.020Z,10.51
2022-10-30T01:05:08.011Z,10.47
2022-10-30T01:05:58.002Z,10.47
2022-10-30T01:06:48.004Z,10.44
2022-10-30T01:07:38.214Z,10.39
2022-10-30T01:08:28.016Z,10.39
2022-10-30T01:09:18.015Z,10.39
2022-10-30T01:10:07.962Z,10.43
2022-10-30T01:10:57.953Z,10.43
2022-10-30T01:11:47.942Z,10.43
2022-10-30T01:12:37.930Z,10.46
2022-10-30T01:13:27.947Z,10.46
2022-10-30T01:14:17.910Z,10.44
2022-10-30T01:15:07.900Z,10.36
2022-10-30T01:15:57.902Z,10.28
2022-10-30T01:16:47.887Z,10.25
2022-10-30T01:17:37.870Z,10.20
2022-10-30T01:18:27.869Z,10.20
2022-10-30T01:19:17.907Z,10.20
2022-10-30T01:20:07.854Z,10.18
2022-10-30T01:20:57.835Z,10.16
2022-10-30T01:21:47.830Z,10.16
2022-10-30T01:22:37.822Z,10.13
2022-10-30T01:23:27.820Z,10.13
2022-10-30T01:24:17.807Z,10.11
2022-10-30T01:25:07.836Z,10.14
2022-10-30T01:25:57.787Z,10.17
2022-10-30T01:26:47.769Z,10.16
2022-10-30T01:27:37.771Z,10.18
2022-10-30T01:28:27.755Z,10.16
2022-10-30T01:29:17.750Z,10.16
2022-10-30T01:30:07.739Z,10.17
2022-10-30T01:30:57.928Z,10.16
2022-10-30T01:31:47.719Z,10.17
2022-10-30T01:32:37.708Z,10.18
2022-10-30T01:33:27.689Z,10.18
2022-10-30T01:34:17.698Z,10.18
2022-10-30T01:35:07.677Z,10.17
2022-10-30T01:35:57.668Z,10.18
2022-10-30T01:36:47.848Z,10.17
2022-10-30T01:37:37.648Z,10.17
2022-10-30T01:38:27.653Z,10.16
2022-10-30T01:39:17.647Z,10.14
2022-10-30T01:40:07.619Z,10.14
2022-10-30T01:40:57.618Z,10.13
2022-10-30T01:41:47.607Z,10.14
2022-10-30T01:42:37.827Z,10.16
2022-10-30T01:43:27.592Z,10.16
2022-10-30T01:44:17.585Z,10.16
2022-10-30T01:45:07.569Z,10.14
2022-10-30T01:45:57.557Z,10.13
2022-10-30T01:46:47.560Z,10.13
2022-10-30T01:47:37.537Z,10.09
2022-10-30T01:48:27.738Z,10.06
2022-10-30T01:49:17.574Z,10.04
2022-10-30T01:50:07.506Z,10.01
2022-10-30T01:50:57.508Z,9.99
2022-10-30T01:51:47.497Z,9.99
2022-10-30T01:52:37.498Z,9.96
2022-10-30T01:53:27.465Z,9.92
2022-10-30T01:54:17.486Z,9.92
2022-10-30T01:55:07.446Z,9.92
2022-10-30T01:55:57.447Z,9.92
2022-10-30T01:56:47.435Z,9.89
2022-10-30T01:57:37.426Z,9.91
2022-10-30T01:58:27.416Z,9.88
2022-10-30T01:59:17.416Z,9.88
2022-10-30T02:00:07.605Z,9.85
2022-10-30T02:00:57.499Z,9.81
2022-10-30T02:01:47.623Z,9.85
2022-10-30T02:02:37.449Z,9.86
2022-10-30T02:03:27.365Z,9.88
2022-10-30T02:04:17.362Z,9.88
2022-10-30T02:05:07.346Z,9.88
2022-10-30T02:05:57.362Z,9.91
2022-10-30T02:06:47.336Z,9.88
2022-10-30T02:07:37.326Z,9.86
2022-10-30T02:08:27.317Z,9.86
2022-10-30T02:09:17.306Z,9.86
2022-10-30T02:10:07.289Z,9.86
2022-10-30T02:10:57.284Z,9.85
2022-10-30T02:11:47.293Z,9.85
2022-10-30T02:12:37.261Z,9.83
2022-10-30T02:13:27.246Z,9.83
2022-10-30T02:14:17.234Z,9.81
2022-10-30T02:15:07.236Z,9.80
2022-10-30T02:15:57.224Z,9.78
2022-10-30T02:16:47.205Z,9.78
2022-10-30T02:17:37.440Z,9.78
2022-10-30T02:18:27.195Z,9.78
2022-10-30T02:19:17.193Z,9.81
2022-10-30T02:20:07.174Z,9.80
2022-10-30T02:20:57.226Z,9.77
2022-10-30T02:21:47.153Z,9.80
2022-10-30T02:22:37.235Z,9.77
2022-10-30T02:23:27.235Z,9.74
2022-10-30T02:24:17.123Z,9.75
2022-10-30T02:25:07.112Z,9.74
2022-10-30T02:25:57.114Z,9.74
2022-10-30T02:26:47.092Z,9.73
2022-10-30T02:27:37.082Z,9.73
2022-10-30T02:28:27.075Z,9.73
2022-10-30T02:29:17.107Z,9.73
2022-10-30T02:30:07.063Z,9.73
2022-10-30T02:30:57.060Z,9.73
2022-10-30T02:31:47.064Z,9.70
2022-10-30T02:32:37.041Z,9.70
2022-10-30T02:33:27.032Z,9.67
2022-10-30T02:34:17.016Z,9.67
2022-10-30T02:35:07.032Z,9.67
2022-10-30T02:35:57.000Z,9.68
2022-10-30T02:36:46.982Z,9.65
2022-10-30T02:37:37.106Z,9.62
2022-10-30T02:38:26.962Z,9.62
2022-10-30T02:39:16.961Z,9.60
2022-10-30T02:40:06.951Z,9.59
2022-10-30T02:40:56.962Z,9.59
2022-10-30T02:41:46.921Z,9.58
2022-10-30T02:42:36.943Z,9.59
2022-10-30T02:43:26.910Z,9.56
2022-10-30T02:44:16.904Z,9.55
2022-10-30T02:45:06.893Z,9.55
2022-10-30T02:45:56.880Z,9.55
2022-10-30T02:46:46.902Z,9.53
2022-10-30T02:47:36.868Z,9.52
2022-10-30T02:48:26.850Z,9.50
2022-10-30T02:49:16.850Z,9.52
2022-10-30T02:50:06.842Z,9.52
2022-10-30T02:50:56.832Z,9.52
2022-10-30T02:51:46.810Z,9.52
2022-10-30T02:52:36.841Z,9.53
2022-10-30T02:53:26.796Z,9.52
2022-10-30T02:54:16.791Z,9.49
2022-10-30T02:55:06.782Z,9.49
2022-10-30T02:55:56.775Z,9.45
2022-10-30T02:56:46.763Z,9.48
2022-10-30T02:57:36.749Z,9.45
2022-10-30T02:58:26.773Z,9.45
2022-10-30T02:59:16.743Z,9.45
2022-10-30T03:00:06.720Z,9.42
2022-10-30T03:00:56.749Z,9.44
2022-10-30T03:01:46.815Z,9.42
2022-10-30T03:02:36.702Z,9.42
2022-10-30T03:03:26.695Z,9.41
2022-10-30T03:04:16.890Z,9.41
2022-10-30T03:05:06.667Z,9.41
2022-10-30T03:05:56.660Z,9.38
2022-10-30T03:06:46.650Z,9.38
2022-10-30T03:07:36.637Z,9.37
2022-10-30T03:08:26.645Z,9.35
2022-10-30T03:09:16.630Z,9.34
2022-10-30T03:10:06.635Z,9.32
2022-10-30T03:10:56.608Z,9.31
2022-10-30T03:11:46.597Z,9.31
2022-10-30T03:12:36.595Z,9.31
2022-10-30T03:13:26.582Z,9.31
2022-10-30T03:14:16.569Z,9.34
2022-10-30T03:15:06.559Z,9.32
2022-10-30T03:15:56.580Z,9.32
2022-10-30T03:16:46.541Z,9.32
2022-10-30T03:17:36.600Z,9.27
2022-10-30T03:18:26.531Z,9.26
2022-10-30T03:19:16.508Z,9.22
2022-10-30T03:20:06.499Z,9.17
2022-10-30T03:20:56.514Z,9.15
2022-10-30T03:21:46.537Z,9.15
2022-10-30T03:22:36.484Z,9.15
2022-10-30T03:23:26.464Z,9.16
2022-10-30T03:24:16.455Z,9.17
2022-10-30T03:25:06.448Z,9.19
2022-10-30T03:25:56.438Z,9.19
2022-10-30T03:26:46.657Z,9.19
2022-10-30T03:27:36.424Z,9.22
2022-10-30T03:28:26.406Z,9.20
2022-10-30T03:29:16.402Z,9.20
2022-10-30T03:30:06.397Z,9.22
2022-10-30T03:30:56.375Z,9.24
2022-10-30T03:31:46.371Z,9.24
2022-10-30T03:32:36.393Z,9.23
2022-10-30T03:33:26.347Z,9.23
2022-10-30T03:34:16.346Z,9.23
2022-10-30T03:35:06.326Z,9.22
2022-10-30T03:35:56.336Z,9.19
2022-10-30T03:36:46.312Z,9.19
2022-10-30T03:37:36.304Z,9.17
2022-10-30T03:38:26.504Z,9.16
2022-10-30T03:39:16.295Z,9.16
2022-10-30T03:40:06.273Z,9.15
2022-10-30T03:40:56.265Z,9.15
2022-10-30T03:41:46.257Z,9.13
2022-10-30T03:42:36.243Z,9.12
2022-10-30T03:43:26.234Z,9.10
2022-10-30T03:44:16.257Z,9.06
2022-10-30T03:45:06.224Z,9.06
2022-10-30T03:45:56.214Z,9.08
2022-10-30T03:46:46.193Z,9.06
2022-10-30T03:47:36.193Z,9.06
2022-10-30T03:48:26.181Z,9.08
2022-10-30T03:49:16.177Z,9.08
2022-10-30T03:50:06.382Z,9.06
2022-10-30T03:50:56.163Z,9.04
2022-10-30T03:51:46.143Z,9.03
2022-10-30T03:52:36.145Z,8.97
2022-10-30T03:53:26.141Z,8.98
2022-10-30T03:54:16.117Z,8.97
2022-10-30T03:55:06.113Z,8.97
2022-10-30T03:55:56.134Z,8.96
2022-10-30T03:56:46.091Z,8.93
2022-10-30T03:57:36.083Z,8.91
2022-10-30T03:58:26.070Z,8.88
2022-10-30T03:59:16.068Z,8.86
2022-10-30T04:00:06.052Z,8.86
2022-10-30T04:00:56.120Z,8.86
2022-10-30T04:01:46.357Z,8.89
2022-10-30T04:02:36.023Z,8.88
2022-10-30T04:03:26.016Z,8.89
2022-10-30T04:04:16.003Z,8.86
2022-10-30T04:05:05.991Z,8.86
2022-10-30T04:05:55.993Z,8.85
2022-10-30T04:06:45.980Z,8.86
2022-10-30T04:07:36.022Z,8.86
2022-10-30T04:08:25.961Z,8.82
2022-10-30T04:09:15.950Z,8.83
2022-10-30T04:10:05.942Z,8.85
2022-10-30T04:10:55.983Z,8.85
2022-10-30T04:11:45.923Z,8.86
2022-10-30T04:12:35.912Z,8.85
2022-10-30T04:13:25.946Z,8.85
2022-10-30T04:14:15.890Z,8.82
2022-10-30T04:15:05.876Z,8.82
2022-10-30T04:15:57.890Z,8.78
2022-10-30T04:16:45.880Z,8.78
2022-10-30T04:17:35.860Z,8.79
2022-10-30T04:18:25.880Z,8.76
2022-10-30T04:19:15.868Z,8.76
2022-10-30T04:20:05.828Z,8.78
2022-10-30T04:20:55.832Z,8.79
2022-10-30T04:21:45.809Z,8.78
2022-10-30T04:22:35.798Z,8.78
2022-10-30T04:23:25.800Z,8.75
2022-10-30T04:24:15.791Z,8.73
2022-10-30T04:25:05.986Z,8.71
2022-10-30T04:25:55.765Z,8.71
2022-10-30T04:26:45.758Z,8.71
2022-10-30T04:27:35.747Z,8.71
2022-10-30T04:28:25.728Z,8.70
2022-10-30T04:29:15.732Z,8.68
2022-10-30T04:30:05.711Z,8.70
2022-10-30T04:30:55.737Z,8.73
2022-10-30T04:31:45.695Z,8.73
2022-10-30T04:32:35.687Z,8.70
2022-10-30T04:33:25.676Z,8.71
2022-10-30T04:34:15.667Z,8.70
2022-10-30T04:35:05.657Z,8.70
2022-10-30T04:35:55.648Z,8.70
2022-10-30T04:36:45.665Z,8.68
2022-10-30T04:37:35.637Z,8.68
2022-10-30T04:38:25.617Z,8.68
2022-10-30T04:39:15.611Z,8.68
2022-10-30T04:40:05.601Z,8.68
2022-10-30T04:40:55.607Z,8.68
2022-10-30T04:41:45.586Z,8.68
2022-10-30T04:42:35.603Z,8.68
2022-10-30T04:43:25.566Z,8.68
2022-10-30T04:44:15.566Z,8.68
2022-10-30T04:45:06.355Z,8.65
2022-10-30T04:45:55.545Z,8.65
2022-10-30T04:46:45.526Z,8.64
2022-10-30T04:47:35.530Z,8.64
2022-10-30T04:48:25.558Z,8.63
2022-10-30T04:49:15.510Z,8.61
2022-10-30T04:50:05.497Z,8.55
2022-10-30T04:50:55.568Z,8.52
2022-10-30T04:51:45.477Z,8.50
2022-10-30T04:52:35.472Z,8.52
2022-10-30T04:53:25.464Z,8.52
2022-10-30T04:54:15.473Z,8.49
2022-10-30T04:55:05.437Z,8.46
2022-10-30T04:55:55.425Z,8.49
2022-10-30T04:56:45.415Z,8.50
2022-10-30T04:57:35.417Z,8.50
2022-10-30T04:58:25.616Z,8.50
2022-10-30T04:59:15.388Z,8.49
2022-10-30T05:00:05.391Z,8.50
2022-10-30T05:01:00.371Z,8.47
2022-10-30T05:01:46.470Z,8.45
2022-10-30T05:02:35.564Z,8.45
2022-10-30T05:03:25.347Z,8.43
2022-10-30T05:04:15.556Z,8.42
2022-10-30T05:05:05.344Z,8.42
2022-10-30T05:05:55.317Z,8.42
2022-10-30T05:06:45.316Z,8.40
2022-10-30T05:07:35.296Z,8.40
2022-10-30T05:08:25.294Z,8.39
2022-10-30T05:09:15.279Z,8.39
2022-10-30T05:10:05.348Z,8.39
2022-10-30T05:10:55.256Z,8.40
2022-10-30T05:11:45.252Z,8.40
2022-10-30T05:12:35.236Z,8.42
2022-10-30T05:13:25.234Z,8.42
2022-10-30T05:14:15.224Z,8.42
2022-10-30T05:15:05.214Z,8.42
2022-10-30T05:15:55.233Z,8.42
2022-10-30T05:16:45.201Z,8.40
2022-10-30T05:17:35.185Z,8.42
2022-10-30T05:18:25.188Z,8.40
2022-10-30T05:19:15.162Z,8.39
2022-10-30T05:20:05.156Z,8.37
2022-10-30T05:20:55.147Z,8.34
2022-10-30T05:21:45.163Z,8.34
2022-10-30T05:22:35.125Z,8.32
2022-10-30T05:23:25.120Z,8.31
2022-10-30T05:24:15.104Z,8.32
2022-10-30T05:25:05.110Z,8.32
2022-10-30T05:25:55.081Z,8.31
2022-10-30T05:26:45.085Z,8.29
2022-10-30T05:27:35.090Z,8.29
2022-10-30T05:28:25.070Z,8.32
2022-10-30T05:29:15.058Z,8.31
2022-10-30T05:30:05.054Z,8.34
2022-10-30T05:30:55.032Z,8.32
2022-10-30T05:31:45.032Z,8.31
2022-10-30T05:32:35.018Z,8.32
2022-10-30T05:33:25.033Z,8.32
2022-10-30T05:34:15.002Z,8.34
2022-10-30T05:35:05.048Z,8.32
2022-10-30T05:35:54.971Z,8.36
2022-10-30T05:36:44.985Z,8.36
2022-10-30T05:37:34.964Z,8.37
2022-10-30T05:38:24.953Z,8.36
2022-10-30T05:39:14.961Z,8.36
2022-10-30T05:40:04.939Z,8.37
2022-10-30T05:40:54.922Z,8.36
2022-10-30T05:41:44.914Z,8.34
2022-10-30T05:42:34.899Z,8.34
2022-10-30T05:43:24.901Z,8.31
2022-10-30T05:44:18.132Z,8.32
2022-10-30T05:45:05.909Z,8.34
2022-10-30T05:45:54.871Z,8.34
2022-10-30T05:46:44.882Z,8.36
2022-10-30T05:47:34.851Z,8.37
2022-10-30T05:48:24.839Z,8.37
2022-10-30T05:49:14.831Z,8.32
2022-10-30T05:50:04.826Z,8.29
2022-10-30T05:50:55.027Z,8.28
2022-10-30T05:51:44.808Z,8.24
2022-10-30T05:52:34.790Z,8.20
2022-10-30T05:53:24.789Z,8.13
2022-10-30T05:54:14.768Z,8.12
2022-10-30T05:55:04.766Z,8.13
2022-10-30T05:55:54.759Z,8.09
2022-10-30T05:56:44.960Z,8.06
2022-10-30T05:57:34.753Z,8.07
2022-10-30T05:58:24.728Z,8.09
2022-10-30T05:59:14.724Z,8.13
2022-10-30T06:00:04.709Z,8.18
2022-10-30T06:00:54.704Z,8.20
2022-10-30T06:02:34.977Z,8.22
2022-10-30T06:03:24.671Z,8.24
2022-10-30T06:04:14.657Z,8.24
2022-10-30T06:05:04.660Z,8.25
2022-10-30T06:05:54.656Z,8.27
2022-10-30T06:06:44.636Z,8.28
2022-10-30T06:07:34.627Z,8.28
2022-10-30T06:08:24.646Z,8.27
2022-10-30T06:09:14.604Z,8.24
2022-10-30T06:10:04.597Z,8.21
2022-10-30T06:10:54.600Z,8.14
2022-10-30T06:11:44.590Z,8.10
2022-10-30T06:12:34.576Z,8.10
2022-10-30T06:13:24.566Z,8.09
2022-10-30T06:14:14.607Z,8.10
2022-10-30T06:15:04.541Z,8.13
2022-10-30T06:15:54.538Z,8.14
2022-10-30T06:16:44.525Z,8.14
2022-10-30T06:17:34.517Z,8.14
2022-10-30T06:18:24.504Z,8.17
2022-10-30T06:19:17.633Z,8.18
2022-10-30T06:20:04.534Z,8.18
2022-10-30T06:20:54.478Z,8.20
2022-10-30T06:21:44.466Z,8.24
2022-10-30T06:22:34.460Z,8.22
2022-10-30T06:23:24.458Z,8.27
2022-10-30T06:24:14.434Z,8.27
2022-10-30T06:25:04.427Z,8.29
2022-10-30T06:25:54.634Z,8.29
2022-10-30T06:26:44.416Z,8.29
2022-10-30T06:27:34.404Z,8.28
2022-10-30T06:28:24.411Z,8.22
2022-10-30T06:29:14.384Z,8.17
2022-10-30T06:30:04.374Z,8.12
2022-10-30T06:30:54.369Z,8.10
2022-10-30T06:31:44.383Z,8.12
2022-10-30T06:32:34.345Z,8.10
2022-10-30T06:33:24.337Z,8.12
2022-10-30T06:34:14.544Z,8.14
2022-10-30T06:35:04.344Z,8.18
2022-10-30T06:35:54.311Z,8.21
2022-10-30T06:36:44.337Z,8.21
2022-10-30T06:37:34.284Z,8.22
2022-10-30T06:38:24.283Z,8.24
2022-10-30T06:39:14.283Z,8.25
2022-10-30T06:40:07.475Z,8.25
2022-10-30T06:40:54.252Z,8.22
2022-10-30T06:41:44.241Z,8.22
2022-10-30T06:42:34.243Z,8.20
2022-10-30T06:43:24.230Z,8.18
2022-10-30T06:44:14.234Z,8.17
2022-10-30T06:45:04.214Z,8.20
2022-10-30T06:45:54.300Z,8.20
2022-10-30T06:46:44.193Z,8.20
2022-10-30T06:47:34.172Z,8.21
2022-10-30T06:48:24.180Z,8.22
2022-10-30T06:49:14.152Z,8.24
2022-10-30T06:50:04.151Z,8.20
2022-10-30T06:50:54.141Z,8.21
2022-10-30T06:51:44.172Z,8.21
2022-10-30T06:52:34.141Z,8.20
2022-10-30T06:53:24.126Z,8.20
2022-10-30T06:54:14.116Z,8.18
2022-10-30T06:55:04.094Z,8.17
2022-10-30T06:55:58.638Z,8.17
2022-10-30T06:56:44.083Z,8.14
2022-10-30T06:57:34.090Z,8.14
2022-10-30T06:58:24.061Z,8.14
2022-10-30T06:59:14.048Z,8.20
2022-10-30T07:00:04.040Z,8.21
2022-10-30T07:00:54.039Z,8.28
2022-10-30T07:01:44.087Z,8.32
2022-10-30T07:02:34.012Z,8.36
2022-10-30T07:03:24.033Z,8.37
2022-10-30T07:04:14.003Z,8.37
2022-10-30T07:05:04.010Z,8.37
2022-10-30T07:05:53.972Z,8.39
2022-10-30T07:06:44.182Z,8.39
2022-10-30T07:07:33.958Z,8.40
2022-10-30T07:08:23.949Z,8.43
2022-10-30T07:09:13.929Z,8.43
2022-10-30T07:10:03.929Z,8.45
2022-10-30T07:10:53.910Z,8.46
2022-10-30T07:11:43.908Z,8.46
2022-10-30T07:12:33.921Z,8.47
2022-10-30T07:13:23.904Z,8.47
2022-10-30T07:14:13.880Z,8.47
2022-10-30T07:15:03.876Z,8.47
2022-10-30T07:15:53.860Z,8.49
2022-10-30T07:16:43.849Z,8.49
2022-10-30T07:17:33.838Z,8.47
2022-10-30T07:18:23.865Z,8.49
2022-10-30T07:19:13.818Z,8.50
2022-10-30T07:20:03.817Z,8.52
2022-10-30T07:20:53.799Z,8.52
2022-10-30T07:21:43.801Z,8.54
2022-10-30T07:22:33.797Z,8.55
2022-10-30T07:23:23.778Z,8.57
2022-10-30T07:24:13.798Z,8.55
2022-10-30T07:25:03.757Z,8.55
2022-10-30T07:25:53.738Z,8.55
2022-10-30T07:26:43.758Z,8.55
2022-10-30T07:27:33.727Z,8.54
2022-10-30T07:28:23.731Z,8.55
2022-10-30T07:29:13.712Z,8.55
2022-10-30T07:30:03.767Z,8.58
2022-10-30T07:30:53.699Z,8.60
2022-10-30T07:31:57.675Z,8.60
2022-10-30T07:32:34.677Z,8.64
2022-10-30T07:33:24.335Z,8.65
2022-10-30T07:34:13.668Z,8.67
2022-10-30T07:35:03.672Z,8.71
2022-10-30T07:35:53.674Z,8.71
2022-10-30T07:36:43.658Z,8.73
2022-10-30T07:37:33.615Z,8.73
2022-10-30T07:38:23.614Z,8.73
2022-10-30T07:39:13.595Z,8.76
2022-10-30T07:40:06.346Z,8.75
2022-10-30T07:40:54.605Z,8.76
2022-10-30T07:41:48.893Z,8.76
2022-10-30T07:42:34.555Z,8.79
2022-10-30T07:43:23.554Z,8.82
2022-10-30T07:44:13.542Z,8.82
2022-10-30T07:45:03.610Z,8.82
2022-10-30T07:45:53.531Z,8.83
2022-10-30T07:46:43.542Z,8.85
2022-10-30T07:47:33.505Z,8.85
2022-10-30T07:48:23.520Z,8.88
2022-10-30T07:49:13.483Z,8.91
2022-10-30T07:50:03.504Z,8.93
2022-10-30T07:50:53.471Z,8.94
2022-10-30T07:51:43.466Z,8.97
2022-10-30T07:52:33.443Z,9.00
2022-10-30T07:53:23.435Z,9.01
2022-10-30T07:54:13.440Z,9.04
2022-10-30T07:55:03.420Z,9.08
2022-10-30T07:55:53.432Z,9.08
2022-10-30T07:56:43.402Z,9.10
2022-10-30T07:57:33.384Z,9.10
2022-10-30T07:58:23.383Z,9.12
2022-10-30T07:59:13.372Z,9.15
2022-10-30T08:00:04.590Z,9.15
2022-10-30T08:00:53.358Z,9.13
2022-10-30T08:01:43.680Z,9.13
2022-10-30T08:02:33.458Z,9.15
2022-10-30T08:03:23.336Z,9.13
2022-10-30T08:04:13.317Z,9.15
2022-10-30T08:05:03.303Z,9.17
2022-10-30T08:05:53.316Z,9.19
2022-10-30T08:06:43.291Z,9.17
2022-10-30T08:07:36.109Z,9.19
2022-10-30T08:08:23.275Z,9.20
2022-10-30T08:09:13.272Z,9.20
2022-10-30T08:10:03.252Z,9.22
2022-10-30T08:10:53.246Z,9.23
2022-10-30T08:11:43.250Z,9.26
2022-10-30T08:12:33.219Z,9.27
2022-10-30T08:13:23.430Z,9.30
2022-10-30T08:14:13.207Z,9.31
2022-10-30T08:15:03.200Z,9.34
2022-10-30T08:15:53.191Z,9.35
2022-10-30T08:16:43.180Z,9.35
2022-10-30T08:17:33.162Z,9.38
2022-10-30T08:18:23.159Z,9.40
2022-10-30T08:19:13.170Z,9.42
2022-10-30T08:20:03.141Z,9.44
2022-10-30T08:20:53.135Z,9.48
2022-10-30T08:21:43.118Z,9.48
2022-10-30T08:22:33.131Z,9.50
2022-10-30T08:23:23.122Z,9.53
2022-10-30T08:24:13.099Z,9.55
2022-10-30T08:25:03.109Z,9.55
2022-10-30T08:25:53.067Z,9.56
2022-10-30T08:26:43.066Z,9.58
2022-10-30T08:27:33.048Z,9.60
2022-10-30T08:28:25.811Z,9.60
2022-10-30T08:29:14.040Z,9.63
2022-10-30T08:30:03.042Z,9.63
2022-10-30T08:30:53.074Z,9.65
2022-10-30T08:31:43.009Z,9.67
2022-10-30T08:32:33.001Z,9.68
2022-10-30T08:33:22.989Z,9.71
2022-10-30T08:34:12.987Z,9.73
2022-10-30T08:35:02.972Z,9.75
2022-10-30T08:35:52.976Z,9.78
2022-10-30T08:36:46.717Z,9.78
2022-10-30T08:37:33.948Z,9.81
2022-10-30T08:38:22.927Z,9.85
2022-10-30T08:39:12.930Z,9.88
2022-10-30T08:40:02.919Z,9.91
2022-10-30T08:40:52.929Z,9.92
2022-10-30T08:41:42.889Z,9.95
2022-10-30T08:42:32.908Z,9.98
2022-10-30T08:43:22.885Z,9.99
2022-10-30T08:44:12.878Z,10.02
2022-10-30T08:45:02.893Z,10.06
2022-10-30T08:45:52.867Z,10.10
2022-10-30T08:46:42.836Z,10.16
2022-10-30T08:47:32.836Z,10.17
2022-10-30T08:48:23.028Z,10.22
2022-10-30T08:49:12.812Z,10.24
2022-10-30T08:50:02.815Z,10.26
2022-10-30T08:50:52.796Z,10.29
2022-10-30T08:51:42.787Z,10.31
2022-10-30T08:52:32.775Z,10.35
2022-10-30T08:53:22.759Z,10.38
2022-10-30T08:54:12.795Z,10.43
2022-10-30T08:55:02.735Z,10.46
2022-10-30T08:55:52.738Z,10.55
2022-10-30T08:56:42.726Z,10.60
2022-10-30T08:57:32.727Z,10.63
2022-10-30T08:58:22.706Z,10.65
2022-10-30T08:59:17.144Z,10.69
2022-10-30T09:00:03.742Z,10.72
2022-10-30T09:00:57.217Z,10.72
2022-10-30T09:01:43.779Z,10.75
2022-10-30T09:02:32.797Z,10.76
2022-10-30T09:03:22.661Z,10.81
2022-10-30T09:04:12.654Z,10.83
2022-10-30T09:05:02.698Z,10.84
2022-10-30T09:05:52.664Z,10.86
2022-10-30T09:06:42.606Z,10.90
2022-10-30T09:07:32.608Z,10.94
2022-10-30T09:08:22.596Z,10.98
2022-10-30T09:09:12.588Z,11.02
2022-10-30T09:10:02.578Z,11.09
2022-10-30T09:10:52.566Z,11.16
2022-10-30T09:11:43.036Z,11.24
2022-10-30T09:12:32.553Z,11.31
2022-10-30T09:13:22.543Z,11.35
2022-10-30T09:14:12.575Z,11.41
2022-10-30T09:15:02.516Z,11.48
2022-10-30T09:15:52.518Z,11.51
2022-10-30T09:16:42.495Z,11.54
2022-10-30T09:17:32.724Z,11.57
2022-10-30T09:18:22.481Z,11.59
2022-10-30T09:19:17.644Z,11.62
2022-10-30T09:20:03.463Z,11.64
2022-10-30T09:20:52.463Z,11.67
2022-10-30T09:21:42.452Z,11.69
2022-10-30T09:22:32.445Z,11.74
2022-10-30T09:23:22.463Z,11.77
2022-10-30T09:24:12.425Z,11.78
2022-10-30T09:25:02.412Z,11.81
2022-10-30T09:25:52.402Z,11.87
2022-10-30T09:26:42.395Z,11.90
2022-10-30T09:27:32.392Z,11.97
2022-10-30T09:28:22.373Z,12.04
2022-10-30T09:29:12.401Z,12.11
2022-10-30T09:30:02.361Z,12.16
2022-10-30T09:30:52.342Z,12.23
2022-10-30T09:31:42.331Z,12.29
2022-10-30T09:32:32.336Z,12.31
2022-10-30T09:33:22.315Z,12.40
2022-10-30T09:34:12.320Z,12.48
2022-10-30T09:35:02.335Z,12.58
2022-10-30T09:35:52.292Z,12.63
2022-10-30T09:36:42.272Z,12.67
2022-10-30T09:37:32.285Z,12.69
2022-10-30T09:38:22.267Z,12.70
2022-10-30T09:39:12.251Z,12.73
2022-10-30T09:40:02.248Z,12.73
2022-10-30T09:40:52.452Z,12.76
2022-10-30T09:41:44.746Z,12.74
2022-10-30T09:42:32.230Z,12.79
2022-10-30T09:43:22.201Z,12.80
2022-10-30T09:44:12.201Z,12.81
2022-10-30T09:45:27.305Z,12.85
2022-10-30T09:45:53.256Z,12.91
2022-10-30T09:46:42.176Z,12.94
2022-10-30T09:47:32.161Z,12.96
2022-10-30T09:48:22.150Z,12.99
2022-10-30T09:49:12.153Z,13.03
2022-10-30T09:50:02.131Z,13.06
2022-10-30T09:50:52.240Z,13.07
2022-10-30T09:51:42.139Z,13.12
2022-10-30T09:52:32.110Z,13.17
2022-10-30T09:53:22.090Z,13.21
2022-10-30T09:54:12.091Z,13.24
2022-10-30T09:55:02.081Z,13.28
2022-10-30T09:55:52.073Z,13.32
2022-10-30T09:56:42.057Z,13.38
2022-10-30T09:57:32.089Z,13.46
2022-10-30T09:58:22.051Z,13.53
2022-10-30T09:59:12.034Z,13.59
2022-10-30T10:00:02.027Z,13.63
2022-10-30T10:00:52.074Z,13.71
2022-10-30T10:01:42.211Z,13.72
2022-10-30T10:02:32.223Z,13.80
2022-10-30T10:03:22.279Z,13.83
2022-10-30T10:04:11.978Z,13.90
2022-10-30T10:05:01.971Z,13.98
2022-10-30T10:05:51.959Z,14.04
2022-10-30T10:06:41.951Z,14.09
2022-10-30T10:07:31.951Z,14.13
2022-10-30T10:08:21.929Z,14.20
2022-10-30T10:09:12.148Z,14.24
2022-10-30T10:10:02.029Z,14.30
2022-10-30T10:10:51.906Z,14.34
2022-10-30T10:11:41.889Z,14.39
2022-10-30T10:12:31.889Z,14.39
2022-10-30T10:13:21.883Z,14.44
2022-10-30T10:14:11.872Z,14.49
2022-10-30T10:15:01.936Z,14.54
2022-10-30T10:15:51.867Z,14.57
2022-10-30T10:16:41.838Z,14.61
2022-10-30T10:17:31.835Z,14.67
2022-10-30T10:18:21.847Z,14.72
2022-10-30T10:19:11.821Z,14.78
2022-10-30T10:20:01.825Z,14.80
2022-10-30T10:20:52.015Z,14.85
2022-10-30T10:21:41.790Z,14.91
2022-10-30T10:22:31.777Z,14.93
2022-10-30T10:23:21.767Z,14.98
2022-10-30T10:24:11.790Z,15.01
2022-10-30T10:25:01.750Z,15.04
2022-10-30T10:25:51.750Z,15.07
2022-10-30T10:26:41.953Z,15.11
2022-10-30T10:27:31.721Z,15.15
2022-10-30T10:28:21.723Z,15.18
2022-10-30T10:29:11.718Z,15.20
2022-10-30T10:30:01.721Z,15.23
2022-10-30T10:30:51.689Z,15.28
2022-10-30T10:31:41.689Z,15.31
2022-10-30T10:32:31.716Z,15.34
2022-10-30T10:34:11.660Z,15.38
2022-10-30T10:35:01.655Z,15.41
2022-10-30T10:35:51.630Z,15.43
2022-10-30T10:36:41.629Z,15.44
2022-10-30T10:37:31.620Z,15.46
2022-10-30T10:38:21.630Z,15.48
2022-10-30T10:39:11.601Z,15.52
2022-10-30T10:40:01.592Z,15.55
2022-10-30T10:40:51.591Z,15.59
2022-10-30T10:41:41.568Z,15.62
2022-10-30T10:42:31.584Z,15.70
2022-10-30T10:43:21.548Z,15.74
2022-10-30T10:44:11.570Z,15.80
2022-10-30T10:45:01.539Z,15.84
2022-10-30T10:45:51.528Z,15.89
2022-10-30T10:46:41.531Z,15.95
2022-10-30T10:47:31.509Z,15.99
2022-10-30T10:48:21.515Z,15.99
2022-10-30T10:49:11.519Z,16.04
2022-10-30T10:50:01.718Z,16.10
2022-10-30T10:50:51.487Z,16.14
2022-10-30T10:51:41.471Z,16.18
2022-10-30T10:52:31.471Z,16.27
2022-10-30T10:53:21.457Z,16.32
2022-10-30T10:54:11.449Z,16.34
2022-10-30T10:55:01.439Z,16.42
2022-10-30T10:55:51.459Z,16.50
2022-10-30T10:56:41.421Z,16.54
2022-10-30T10:57:31.418Z,16.60
2022-10-30T10:58:21.399Z,16.66